sensor_id;sensor_type;location;lat;lon;timestamp;P1;durP1;ratioP1;P2;durP2;ratioP2
77022;SDS011;65952;51.440;-2.054;2023-02-21T00:01:31;3.50;;;1.77;;
77022;SDS011;65952;51.440;-2.054;2023-02-21T00:04:15;3.65;;;1.80;;
77022;SDS011;65952;51.440;-2.054;2023-02-21T00:06:59;3.70;;;1.83;;
77022;SDS011;65952;51.440;-2.054;2023-02-21T00:09:43;3.33;;;1.65;;
77022;SDS011;65952;51.440;-2.054;2023-02-21T00:12:27;4.00;;;1.90;;
77022;SDS011;65952;51.440;-2.054;2023-02-21T00:15:11;4.90;;;2.20;;
77022;SDS011;65952;51.440;-2.054;2023-02-21T00:17:55;5.07;;;2.03;;
77022;SDS011;65952;51.440;-2.054;2023-02-21T00:20:39;3.70;;;1.77;;
77022;SDS011;65952;51.440;-2.054;2023-02-21T00:23:23;4.68;;;1.98;;
77022;SDS011;65952;51.440;-2.054;2023-02-21T00:26:07;3.60;;;1.63;;
77022;SDS011;65952;51.440;-2.054;2023-02-21T00:28:51;4.38;;;1.88;;
77022;SDS011;65952;51.440;-2.054;2023-02-21T00:31:34;3.78;;;1.83;;
77022;SDS011;65952;51.440;-2.054;2023-02-21T00:34:18;4.28;;;1.83;;
77022;SDS011;65952;51.440;-2.054;2023-02-21T00:37:02;3.85;;;1.88;;
77022;SDS011;65952;51.440;-2.054;2023-02-21T00:39:46;4.68;;;2.30;;
77022;SDS011;65952;51.440;-2.054;2023-02-21T00:42:30;4.45;;;1.90;;
77022;SDS011;65952;51.440;-2.054;2023-02-21T00:45:14;3.50;;;1.75;;
77022;SDS011;65952;51.440;-2.054;2023-02-21T00:47:58;4.07;;;2.00;;
77022;SDS011;65952;51.440;-2.054;2023-02-21T00:50:42;3.88;;;2.00;;
77022;SDS011;65952;51.440;-2.054;2023-02-21T00:53:26;3.60;;;1.88;;
77022;SDS011;65952;51.440;-2.054;2023-02-21T00:56:10;3.78;;;2.13;;
77022;SDS011;65952;51.440;-2.054;2023-02-21T00:58:54;3.83;;;2.10;;
77022;SDS011;65952;51.440;-2.054;2023-02-21T01:01:38;3.50;;;1.77;;
77022;SDS011;65952;51.440;-2.054;2023-02-21T01:04:22;2.72;;;1.50;;
77022;SDS011;65952;51.440;-2.054;2023-02-21T01:07:06;3.08;;;1.42;;
77022;SDS011;65952;51.440;-2.054;2023-02-21T01:09:50;1.73;;;1.17;;
77022;SDS011;65952;51.440;-2.054;2023-02-21T01:12:34;1.95;;;1.25;;
77022;SDS011;65952;51.440;-2.054;2023-02-21T01:15:18;1.65;;;1.13;;
77022;SDS011;65952;51.440;-2.054;2023-02-21T01:18:02;3.13;;;1.42;;
77022;SDS011;65952;51.440;-2.054;2023-02-21T01:20:46;2.63;;;1.25;;
77022;SDS011;65952;51.440;-2.054;2023-02-21T01:23:30;2.20;;;1.33;;
77022;SDS011;65952;51.440;-2.054;2023-02-21T01:26:14;2.30;;;1.20;;
77022;SDS011;65952;51.440;-2.054;2023-02-21T01:28:58;2.67;;;1.30;;
77022;SDS011;65952;51.440;-2.054;2023-02-21T01:31:42;2.10;;;1.25;;
77022;SDS011;65952;51.440;-2.054;2023-02-21T01:34:26;2.90;;;1.48;;
77022;SDS011;65952;51.440;-2.054;2023-02-21T01:37:10;3.25;;;1.48;;
77022;SDS011;65952;51.440;-2.054;2023-02-21T01:39:54;2.63;;;1.38;;
77022;SDS011;65952;51.440;-2.054;2023-02-21T01:42:38;2.63;;;1.50;;
77022;SDS011;65952;51.440;-2.054;2023-02-21T01:48:06;3.00;;;1.73;;
77022;SDS011;65952;51.440;-2.054;2023-02-21T01:50:54;3.92;;;1.67;;
77022;SDS011;65952;51.440;-2.054;2023-02-21T01:53:39;4.00;;;1.80;;
77022;SDS011;65952;51.440;-2.054;2023-02-21T01:56:23;3.17;;;1.63;;
77022;SDS011;65952;51.440;-2.054;2023-02-21T01:59:07;3.60;;;1.70;;
77022;SDS011;65952;51.440;-2.054;2023-02-21T02:01:55;3.08;;;1.50;;
77022;SDS011;65952;51.440;-2.054;2023-02-21T02:04:46;4.78;;;1.60;;
77022;SDS011;65952;51.440;-2.054;2023-02-21T02:07:32;2.72;;;1.48;;
77022;SDS011;65952;51.440;-2.054;2023-02-21T02:10:17;2.55;;;1.50;;
77022;SDS011;65952;51.440;-2.054;2023-02-21T02:45:43;2.65;;;1.45;;
77022;SDS011;65952;51.440;-2.054;2023-02-21T02:48:19;3.08;;;1.60;;
77022;SDS011;65952;51.440;-2.054;2023-02-21T02:50:49;3.50;;;1.60;;
77022;SDS011;65952;51.440;-2.054;2023-02-21T02:53:18;3.45;;;1.65;;
77022;SDS011;65952;51.440;-2.054;2023-02-21T02:55:52;4.35;;;1.90;;
77022;SDS011;65952;51.440;-2.054;2023-02-21T02:58:21;3.30;;;1.63;;
77022;SDS011;65952;51.440;-2.054;2023-02-21T03:01:00;3.10;;;1.60;;
77022;SDS011;65952;51.440;-2.054;2023-02-21T03:06:10;2.47;;;1.50;;
77022;SDS011;65952;51.440;-2.054;2023-02-21T03:09:06;1.80;;;1.17;;
77022;SDS011;65952;51.440;-2.054;2023-02-21T03:11:40;1.38;;;1.00;;
77022;SDS011;65952;51.440;-2.054;2023-02-21T03:14:15;2.35;;;1.27;;
77022;SDS011;65952;51.440;-2.054;2023-02-21T03:16:49;2.70;;;1.35;;
77022;SDS011;65952;51.440;-2.054;2023-02-21T03:22:06;2.70;;;1.30;;
77022;SDS011;65952;51.440;-2.054;2023-02-21T03:24:36;1.85;;;1.17;;
77022;SDS011;65952;51.440;-2.054;2023-02-21T03:27:04;2.72;;;1.52;;
77022;SDS011;65952;51.440;-2.054;2023-02-21T03:29:32;2.33;;;1.40;;
77022;SDS011;65952;51.440;-2.054;2023-02-21T03:32:05;3.38;;;1.67;;
77022;SDS011;65952;51.440;-2.054;2023-02-21T03:34:37;2.10;;;1.30;;
77022;SDS011;65952;51.440;-2.054;2023-02-21T03:37:08;2.05;;;1.25;;
77022;SDS011;65952;51.440;-2.054;2023-02-21T03:39:43;3.00;;;1.60;;
77022;SDS011;65952;51.440;-2.054;2023-02-21T03:42:08;2.15;;;1.20;;
77022;SDS011;65952;51.440;-2.054;2023-02-21T03:44:34;2.20;;;1.25;;
77022;SDS011;65952;51.440;-2.054;2023-02-21T03:46:59;2.47;;;1.30;;
77022;SDS011;65952;51.440;-2.054;2023-02-21T03:49:24;2.53;;;1.30;;
77022;SDS011;65952;51.440;-2.054;2023-02-21T03:51:50;3.05;;;1.40;;
77022;SDS011;65952;51.440;-2.054;2023-02-21T03:54:15;3.13;;;1.40;;
77022;SDS011;65952;51.440;-2.054;2023-02-21T03:56:40;2.17;;;1.20;;
77022;SDS011;65952;51.440;-2.054;2023-02-21T03:59:06;3.30;;;1.60;;
77022;SDS011;65952;51.440;-2.054;2023-02-21T04:01:31;3.40;;;1.50;;
77022;SDS011;65952;51.440;-2.054;2023-02-21T04:03:56;2.83;;;1.40;;
77022;SDS011;65952;51.440;-2.054;2023-02-21T04:06:22;3.35;;;1.52;;
77022;SDS011;65952;51.440;-2.054;2023-02-21T04:08:47;3.35;;;1.30;;
77022;SDS011;65952;51.440;-2.054;2023-02-21T04:11:15;2.17;;;1.30;;
77022;SDS011;65952;51.440;-2.054;2023-02-21T04:13:42;3.08;;;1.50;;
77022;SDS011;65952;51.440;-2.054;2023-02-21T04:16:07;3.15;;;1.40;;
77022;SDS011;65952;51.440;-2.054;2023-02-21T04:18:33;2.78;;;1.30;;
77022;SDS011;65952;51.440;-2.054;2023-02-21T04:20:58;2.60;;;1.40;;
77022;SDS011;65952;51.440;-2.054;2023-02-21T04:23:23;3.65;;;1.70;;
77022;SDS011;65952;51.440;-2.054;2023-02-21T04:25:49;3.00;;;1.48;;
77022;SDS011;65952;51.440;-2.054;2023-02-21T04:28:14;3.85;;;1.70;;
77022;SDS011;65952;51.440;-2.054;2023-02-21T04:30:39;2.80;;;1.65;;
77022;SDS011;65952;51.440;-2.054;2023-02-21T04:33:05;2.85;;;1.58;;
77022;SDS011;65952;51.440;-2.054;2023-02-21T04:35:30;3.85;;;1.90;;
77022;SDS011;65952;51.440;-2.054;2023-02-21T04:37:55;4.05;;;1.67;;
77022;SDS011;65952;51.440;-2.054;2023-02-21T04:40:21;4.50;;;1.80;;
77022;SDS011;65952;51.440;-2.054;2023-02-21T04:42:46;4.13;;;1.70;;
77022;SDS011;65952;51.440;-2.054;2023-02-21T04:45:12;4.63;;;2.03;;
77022;SDS011;65952;51.440;-2.054;2023-02-21T04:47:37;3.58;;;1.70;;
77022;SDS011;65952;51.440;-2.054;2023-02-21T04:50:05;4.05;;;1.77;;
77022;SDS011;65952;51.440;-2.054;2023-02-21T04:52:31;3.05;;;1.40;;
77022;SDS011;65952;51.440;-2.054;2023-02-21T04:54:57;2.80;;;1.42;;
77022;SDS011;65952;51.440;-2.054;2023-02-21T04:57:22;2.70;;;1.40;;
77022;SDS011;65952;51.440;-2.054;2023-02-21T04:59:48;2.90;;;1.45;;
77022;SDS011;65952;51.440;-2.054;2023-02-21T05:02:13;3.40;;;1.45;;
77022;SDS011;65952;51.440;-2.054;2023-02-21T05:04:39;3.20;;;1.50;;
77022;SDS011;65952;51.440;-2.054;2023-02-21T05:07:06;3.30;;;1.60;;
77022;SDS011;65952;51.440;-2.054;2023-02-21T05:09:31;3.13;;;1.50;;
77022;SDS011;65952;51.440;-2.054;2023-02-21T05:11:57;2.53;;;1.50;;
77022;SDS011;65952;51.440;-2.054;2023-02-21T05:14:22;4.03;;;1.50;;
77022;SDS011;65952;51.440;-2.054;2023-02-21T05:16:47;2.80;;;1.38;;
77022;SDS011;65952;51.440;-2.054;2023-02-21T05:19:17;3.40;;;1.58;;
77022;SDS011;65952;51.440;-2.054;2023-02-21T05:21:52;2.53;;;1.48;;
77022;SDS011;65952;51.440;-2.054;2023-02-21T05:24:22;2.75;;;1.50;;
77022;SDS011;65952;51.440;-2.054;2023-02-21T05:26:48;3.42;;;1.60;;
77022;SDS011;65952;51.440;-2.054;2023-02-21T05:29:14;3.40;;;1.90;;
77022;SDS011;65952;51.440;-2.054;2023-02-21T05:31:39;4.45;;;1.92;;
77022;SDS011;65952;51.440;-2.054;2023-02-21T05:34:04;3.72;;;1.70;;
77022;SDS011;65952;51.440;-2.054;2023-02-21T05:36:30;4.30;;;1.77;;
77022;SDS011;65952;51.440;-2.054;2023-02-21T05:38:55;4.20;;;1.63;;
77022;SDS011;65952;51.440;-2.054;2023-02-21T05:41:21;3.45;;;1.65;;
77022;SDS011;65952;51.440;-2.054;2023-02-21T05:43:47;2.85;;;1.50;;
77022;SDS011;65952;51.440;-2.054;2023-02-21T05:46:17;2.85;;;1.60;;
77022;SDS011;65952;51.440;-2.054;2023-02-21T05:48:45;3.00;;;1.67;;
77022;SDS011;65952;51.440;-2.054;2023-02-21T05:51:11;3.60;;;1.60;;
77022;SDS011;65952;51.440;-2.054;2023-02-21T05:53:36;3.20;;;1.67;;
77022;SDS011;65952;51.440;-2.054;2023-02-21T05:56:02;2.35;;;1.42;;
77022;SDS011;65952;51.440;-2.054;2023-02-21T05:58:27;2.95;;;1.40;;
77022;SDS011;65952;51.440;-2.054;2023-02-21T06:00:53;3.33;;;1.45;;
77022;SDS011;65952;51.440;-2.054;2023-02-21T06:03:18;3.25;;;1.50;;
77022;SDS011;65952;51.440;-2.054;2023-02-21T06:05:43;3.28;;;1.65;;
77022;SDS011;65952;51.440;-2.054;2023-02-21T06:08:09;4.53;;;1.90;;
77022;SDS011;65952;51.440;-2.054;2023-02-21T06:10:34;3.53;;;1.75;;
77022;SDS011;65952;51.440;-2.054;2023-02-21T06:12:59;3.95;;;1.77;;
77022;SDS011;65952;51.440;-2.054;2023-02-21T06:15:25;3.53;;;1.85;;
77022;SDS011;65952;51.440;-2.054;2023-02-21T06:17:50;5.18;;;1.75;;
77022;SDS011;65952;51.440;-2.054;2023-02-21T06:20:15;3.20;;;1.60;;
77022;SDS011;65952;51.440;-2.054;2023-02-21T06:22:41;4.35;;;2.00;;
77022;SDS011;65952;51.440;-2.054;2023-02-21T06:25:07;4.40;;;2.00;;
77022;SDS011;65952;51.440;-2.054;2023-02-21T06:27:33;4.18;;;1.80;;
77022;SDS011;65952;51.440;-2.054;2023-02-21T06:29:59;4.18;;;2.05;;
77022;SDS011;65952;51.440;-2.054;2023-02-21T06:32:24;4.32;;;2.10;;
77022;SDS011;65952;51.440;-2.054;2023-02-21T06:34:51;4.03;;;1.83;;
77022;SDS011;65952;51.440;-2.054;2023-02-21T06:37:17;4.18;;;1.90;;
77022;SDS011;65952;51.440;-2.054;2023-02-21T06:39:43;5.40;;;2.05;;
77022;SDS011;65952;51.440;-2.054;2023-02-21T06:42:11;4.72;;;1.88;;
77022;SDS011;65952;51.440;-2.054;2023-02-21T06:44:44;4.78;;;1.90;;
77022;SDS011;65952;51.440;-2.054;2023-02-21T06:47:12;4.95;;;1.90;;
77022;SDS011;65952;51.440;-2.054;2023-02-21T06:49:38;4.45;;;2.10;;
77022;SDS011;65952;51.440;-2.054;2023-02-21T06:52:04;5.82;;;2.47;;
77022;SDS011;65952;51.440;-2.054;2023-02-21T06:54:30;5.45;;;2.20;;
77022;SDS011;65952;51.440;-2.054;2023-02-21T06:56:55;5.35;;;2.00;;
77022;SDS011;65952;51.440;-2.054;2023-02-21T06:59:21;11.50;;;2.40;;
77022;SDS011;65952;51.440;-2.054;2023-02-21T07:01:47;5.75;;;2.28;;
77022;SDS011;65952;51.440;-2.054;2023-02-21T07:04:12;6.40;;;2.30;;
77022;SDS011;65952;51.440;-2.054;2023-02-21T07:06:38;5.70;;;2.25;;
77022;SDS011;65952;51.440;-2.054;2023-02-21T07:09:03;5.15;;;2.15;;
77022;SDS011;65952;51.440;-2.054;2023-02-21T07:11:30;6.40;;;2.40;;
77022;SDS011;65952;51.440;-2.054;2023-02-21T07:13:57;14.15;;;2.40;;
77022;SDS011;65952;51.440;-2.054;2023-02-21T07:16:23;5.95;;;2.25;;
77022;SDS011;65952;51.440;-2.054;2023-02-21T07:18:49;6.85;;;2.15;;
77022;SDS011;65952;51.440;-2.054;2023-02-21T07:21:16;7.05;;;1.90;;
77022;SDS011;65952;51.440;-2.054;2023-02-21T07:23:43;3.85;;;1.70;;
77022;SDS011;65952;51.440;-2.054;2023-02-21T07:26:09;4.60;;;2.28;;
77022;SDS011;65952;51.440;-2.054;2023-02-21T07:28:35;4.40;;;1.80;;
77022;SDS011;65952;51.440;-2.054;2023-02-21T07:31:01;6.13;;;1.88;;
77022;SDS011;65952;51.440;-2.054;2023-02-21T07:33:27;5.80;;;1.85;;
77022;SDS011;65952;51.440;-2.054;2023-02-21T07:35:52;6.47;;;2.35;;
77022;SDS011;65952;51.440;-2.054;2023-02-21T07:38:18;4.28;;;1.98;;
77022;SDS011;65952;51.440;-2.054;2023-02-21T07:40:48;3.50;;;1.60;;
77022;SDS011;65952;51.440;-2.054;2023-02-21T07:43:13;3.78;;;1.80;;
77022;SDS011;65952;51.440;-2.054;2023-02-21T07:45:39;4.20;;;1.80;;
77022;SDS011;65952;51.440;-2.054;2023-02-21T07:48:04;11.90;;;2.88;;
77022;SDS011;65952;51.440;-2.054;2023-02-21T07:50:30;6.25;;;2.20;;
77022;SDS011;65952;51.440;-2.054;2023-02-21T07:52:55;8.25;;;2.13;;
77022;SDS011;65952;51.440;-2.054;2023-02-21T07:55:21;10.27;;;2.38;;
77022;SDS011;65952;51.440;-2.054;2023-02-21T07:57:46;9.35;;;2.80;;
77022;SDS011;65952;51.440;-2.054;2023-02-21T08:00:12;9.63;;;2.60;;
77022;SDS011;65952;51.440;-2.054;2023-02-21T08:02:38;4.65;;;2.20;;
77022;SDS011;65952;51.440;-2.054;2023-02-21T08:05:05;4.32;;;1.98;;
77022;SDS011;65952;51.440;-2.054;2023-02-21T08:07:31;5.53;;;2.15;;
77022;SDS011;65952;51.440;-2.054;2023-02-21T08:09:57;7.20;;;2.13;;
77022;SDS011;65952;51.440;-2.054;2023-02-21T08:12:22;5.03;;;2.13;;
77022;SDS011;65952;51.440;-2.054;2023-02-21T08:14:48;16.50;;;3.08;;
77022;SDS011;65952;51.440;-2.054;2023-02-21T08:17:13;13.07;;;2.13;;
77022;SDS011;65952;51.440;-2.054;2023-02-21T08:19:39;7.50;;;2.42;;
77022;SDS011;65952;51.440;-2.054;2023-02-21T08:22:04;6.13;;;1.85;;
77022;SDS011;65952;51.440;-2.054;2023-02-21T08:24:29;4.03;;;1.50;;
77022;SDS011;65952;51.440;-2.054;2023-02-21T08:26:55;3.40;;;1.60;;
77022;SDS011;65952;51.440;-2.054;2023-02-21T08:29:20;7.32;;;1.85;;
77022;SDS011;65952;51.440;-2.054;2023-02-21T08:31:46;3.42;;;1.75;;
77022;SDS011;65952;51.440;-2.054;2023-02-21T08:34:12;3.58;;;1.60;;
77022;SDS011;65952;51.440;-2.054;2023-02-21T08:36:38;3.72;;;1.40;;
77022;SDS011;65952;51.440;-2.054;2023-02-21T08:39:06;3.30;;;1.50;;
77022;SDS011;65952;51.440;-2.054;2023-02-21T08:41:40;3.10;;;1.92;;
77022;SDS011;65952;51.440;-2.054;2023-02-21T08:44:09;5.25;;;1.77;;
77022;SDS011;65952;51.440;-2.054;2023-02-21T08:46:36;4.47;;;1.63;;
77022;SDS011;65952;51.440;-2.054;2023-02-21T08:49:03;5.80;;;1.80;;
77022;SDS011;65952;51.440;-2.054;2023-02-21T08:51:30;4.75;;;1.92;;
77022;SDS011;65952;51.440;-2.054;2023-02-21T08:53:56;4.63;;;2.08;;
77022;SDS011;65952;51.440;-2.054;2023-02-21T08:56:23;4.28;;;2.00;;
77022;SDS011;65952;51.440;-2.054;2023-02-21T08:58:49;4.53;;;2.30;;
77022;SDS011;65952;51.440;-2.054;2023-02-21T09:01:16;4.80;;;2.10;;
77022;SDS011;65952;51.440;-2.054;2023-02-21T09:03:41;4.35;;;2.00;;
77022;SDS011;65952;51.440;-2.054;2023-02-21T09:06:07;5.57;;;2.05;;
77022;SDS011;65952;51.440;-2.054;2023-02-21T09:08:33;4.35;;;2.08;;
77022;SDS011;65952;51.440;-2.054;2023-02-21T09:11:03;4.60;;;2.03;;
77022;SDS011;65952;51.440;-2.054;2023-02-21T09:13:29;4.20;;;2.00;;
77022;SDS011;65952;51.440;-2.054;2023-02-21T09:15:57;5.00;;;2.28;;
77022;SDS011;65952;51.440;-2.054;2023-02-21T09:18:23;4.80;;;2.03;;
77022;SDS011;65952;51.440;-2.054;2023-02-21T09:20:49;4.68;;;2.30;;
77022;SDS011;65952;51.440;-2.054;2023-02-21T09:23:16;6.68;;;2.60;;
77022;SDS011;65952;51.440;-2.054;2023-02-21T09:25:46;5.07;;;2.10;;
77022;SDS011;65952;51.440;-2.054;2023-02-21T09:28:12;4.65;;;2.30;;
77022;SDS011;65952;51.440;-2.054;2023-02-21T09:30:39;4.95;;;2.20;;
77022;SDS011;65952;51.440;-2.054;2023-02-21T09:33:04;4.90;;;2.22;;
77022;SDS011;65952;51.440;-2.054;2023-02-21T09:35:30;6.82;;;2.25;;
77022;SDS011;65952;51.440;-2.054;2023-02-21T09:37:56;4.63;;;2.00;;
77022;SDS011;65952;51.440;-2.054;2023-02-21T09:43:33;5.00;;;2.08;;
77022;SDS011;65952;51.440;-2.054;2023-02-21T09:46:01;6.00;;;2.47;;
77022;SDS011;65952;51.440;-2.054;2023-02-21T09:48:29;3.53;;;1.70;;
77022;SDS011;65952;51.440;-2.054;2023-02-21T09:50:57;4.05;;;2.00;;
77022;SDS011;65952;51.440;-2.054;2023-02-21T09:53:28;5.03;;;2.30;;
77022;SDS011;65952;51.440;-2.054;2023-02-21T09:56:06;5.65;;;2.20;;
77022;SDS011;65952;51.440;-2.054;2023-02-21T09:58:38;5.40;;;2.33;;
77022;SDS011;65952;51.440;-2.054;2023-02-21T10:09:24;6.18;;;2.53;;
77022;SDS011;65952;51.440;-2.054;2023-02-21T10:11:54;4.78;;;2.42;;
77022;SDS011;65952;51.440;-2.054;2023-02-21T10:17:34;8.68;;;2.90;;
77022;SDS011;65952;51.440;-2.054;2023-02-21T10:20:11;5.85;;;2.67;;
77022;SDS011;65952;51.440;-2.054;2023-02-21T10:22:40;8.23;;;4.07;;
77022;SDS011;65952;51.440;-2.054;2023-02-21T10:27:53;6.43;;;2.70;;
77022;SDS011;65952;51.440;-2.054;2023-02-21T10:32:56;8.38;;;2.90;;
77022;SDS011;65952;51.440;-2.054;2023-02-21T10:35:22;7.55;;;3.78;;
77022;SDS011;65952;51.440;-2.054;2023-02-21T10:37:51;7.10;;;3.00;;
77022;SDS011;65952;51.440;-2.054;2023-02-21T10:45:48;8.27;;;4.20;;
77022;SDS011;65952;51.440;-2.054;2023-02-21T10:48:26;6.07;;;2.80;;
77022;SDS011;65952;51.440;-2.054;2023-02-21T10:58:53;6.75;;;2.80;;
77022;SDS011;65952;51.440;-2.054;2023-02-21T11:01:29;6.22;;;2.67;;
77022;SDS011;65952;51.440;-2.054;2023-02-21T11:04:01;6.80;;;3.08;;
77022;SDS011;65952;51.440;-2.054;2023-02-21T11:06:32;6.18;;;2.63;;
77022;SDS011;65952;51.440;-2.054;2023-02-21T11:11:51;6.22;;;2.95;;
77022;SDS011;65952;51.440;-2.054;2023-02-21T11:14:25;5.78;;;2.47;;
77022;SDS011;65952;51.440;-2.054;2023-02-21T11:19:40;6.13;;;2.85;;
77022;SDS011;65952;51.440;-2.054;2023-02-21T11:22:12;6.45;;;3.00;;
77022;SDS011;65952;51.440;-2.054;2023-02-21T11:27:32;6.05;;;3.08;;
77022;SDS011;65952;51.440;-2.054;2023-02-21T11:30:00;6.57;;;3.10;;
77022;SDS011;65952;51.440;-2.054;2023-02-21T11:32:29;5.93;;;3.08;;
77022;SDS011;65952;51.440;-2.054;2023-02-21T11:35:02;6.22;;;3.20;;
77022;SDS011;65952;51.440;-2.054;2023-02-21T11:39:57;7.15;;;3.22;;
77022;SDS011;65952;51.440;-2.054;2023-02-21T11:45:21;7.43;;;3.33;;
77022;SDS011;65952;51.440;-2.054;2023-02-21T11:47:56;7.63;;;3.70;;
77022;SDS011;65952;51.440;-2.054;2023-02-21T11:50:28;7.60;;;3.80;;
77022;SDS011;65952;51.440;-2.054;2023-02-21T11:53:02;7.68;;;3.50;;
77022;SDS011;65952;51.440;-2.054;2023-02-21T11:55:29;8.95;;;4.65;;
77022;SDS011;65952;51.440;-2.054;2023-02-21T11:58:19;10.35;;;4.35;;
77022;SDS011;65952;51.440;-2.054;2023-02-21T12:00:55;9.05;;;4.38;;
77022;SDS011;65952;51.440;-2.054;2023-02-21T12:06:28;9.60;;;4.30;;
77022;SDS011;65952;51.440;-2.054;2023-02-21T12:09:09;10.18;;;4.72;;
77022;SDS011;65952;51.440;-2.054;2023-02-21T12:31:19;10.30;;;5.05;;
77022;SDS011;65952;51.440;-2.054;2023-02-21T12:34:05;11.82;;;5.05;;
77022;SDS011;65952;51.440;-2.054;2023-02-21T12:36:41;9.35;;;4.88;;
77022;SDS011;65952;51.440;-2.054;2023-02-21T12:43:15;10.82;;;5.00;;
77022;SDS011;65952;51.440;-2.054;2023-02-21T12:48:05;13.43;;;5.28;;
77022;SDS011;65952;51.440;-2.054;2023-02-21T12:50:41;12.32;;;4.97;;
77022;SDS011;65952;51.440;-2.054;2023-02-21T12:53:17;11.43;;;5.55;;
77022;SDS011;65952;51.440;-2.054;2023-02-21T12:55:54;13.57;;;5.55;;
77022;SDS011;65952;51.440;-2.054;2023-02-21T13:01:17;11.73;;;5.38;;
77022;SDS011;65952;51.440;-2.054;2023-02-21T13:04:12;11.55;;;5.03;;
77022;SDS011;65952;51.440;-2.054;2023-02-21T13:12:17;9.63;;;5.00;;
77022;SDS011;65952;51.440;-2.054;2023-02-21T13:17:13;9.95;;;4.05;;
77022;SDS011;65952;51.440;-2.054;2023-02-21T13:20:02;10.40;;;4.38;;
77022;SDS011;65952;51.440;-2.054;2023-02-21T13:28:20;9.98;;;4.03;;
77022;SDS011;65952;51.440;-2.054;2023-02-21T13:30:51;8.50;;;3.70;;
77022;SDS011;65952;51.440;-2.054;2023-02-21T13:33:23;7.90;;;4.10;;
77022;SDS011;65952;51.440;-2.054;2023-02-21T13:35:51;7.05;;;3.55;;
77022;SDS011;65952;51.440;-2.054;2023-02-21T13:38:17;8.30;;;3.60;;
77022;SDS011;65952;51.440;-2.054;2023-02-21T13:40:48;7.72;;;3.47;;
77022;SDS011;65952;51.440;-2.054;2023-02-21T13:43:23;7.10;;;3.50;;
77022;SDS011;65952;51.440;-2.054;2023-02-21T13:45:53;7.70;;;3.47;;
77022;SDS011;65952;51.440;-2.054;2023-02-21T13:50:50;7.10;;;3.35;;
77022;SDS011;65952;51.440;-2.054;2023-02-21T13:56:10;6.70;;;3.33;;
77022;SDS011;65952;51.440;-2.054;2023-02-21T13:58:38;6.10;;;2.80;;
77022;SDS011;65952;51.440;-2.054;2023-02-21T14:03:43;5.75;;;2.95;;
77022;SDS011;65952;51.440;-2.054;2023-02-21T14:08:46;5.82;;;2.60;;
77022;SDS011;65952;51.440;-2.054;2023-02-21T14:11:16;5.65;;;2.70;;
77022;SDS011;65952;51.440;-2.054;2023-02-21T14:13:48;6.55;;;2.90;;
77022;SDS011;65952;51.440;-2.054;2023-02-21T14:16:22;6.22;;;2.83;;
77022;SDS011;65952;51.440;-2.054;2023-02-21T14:21:33;6.70;;;3.10;;
77022;SDS011;65952;51.440;-2.054;2023-02-21T14:24:00;6.65;;;3.08;;
77022;SDS011;65952;51.440;-2.054;2023-02-21T14:27:00;7.45;;;3.60;;
77022;SDS011;65952;51.440;-2.054;2023-02-21T14:29:33;7.47;;;3.33;;
77022;SDS011;65952;51.440;-2.054;2023-02-21T14:36:56;7.15;;;2.90;;
77022;SDS011;65952;51.440;-2.054;2023-02-21T14:39:29;6.63;;;2.88;;
77022;SDS011;65952;51.440;-2.054;2023-02-21T14:42:07;6.13;;;3.10;;
77022;SDS011;65952;51.440;-2.054;2023-02-21T15:01:42;5.97;;;2.92;;
77022;SDS011;65952;51.440;-2.054;2023-02-21T15:06:54;4.88;;;2.63;;
77022;SDS011;65952;51.440;-2.054;2023-02-21T15:09:23;5.40;;;2.42;;
77022;SDS011;65952;51.440;-2.054;2023-02-21T15:11:48;6.05;;;2.63;;
77022;SDS011;65952;51.440;-2.054;2023-02-21T15:14:25;6.30;;;2.63;;
77022;SDS011;65952;51.440;-2.054;2023-02-21T15:16:57;6.10;;;2.55;;
77022;SDS011;65952;51.440;-2.054;2023-02-21T15:19:26;5.38;;;2.50;;
77022;SDS011;65952;51.440;-2.054;2023-02-21T15:24:57;5.35;;;2.70;;
77022;SDS011;65952;51.440;-2.054;2023-02-21T15:27:22;5.90;;;2.90;;
77022;SDS011;65952;51.440;-2.054;2023-02-21T15:30:02;6.55;;;3.25;;
77022;SDS011;65952;51.440;-2.054;2023-02-21T15:32:28;6.63;;;3.30;;
77022;SDS011;65952;51.440;-2.054;2023-02-21T15:34:53;5.90;;;3.30;;
77022;SDS011;65952;51.440;-2.054;2023-02-21T15:37:20;6.03;;;2.97;;
77022;SDS011;65952;51.440;-2.054;2023-02-21T15:39:52;6.18;;;3.20;;
77022;SDS011;65952;51.440;-2.054;2023-02-21T15:42:24;6.82;;;3.55;;
77022;SDS011;65952;51.440;-2.054;2023-02-21T15:44:59;5.22;;;3.08;;
77022;SDS011;65952;51.440;-2.054;2023-02-21T15:47:28;6.60;;;3.55;;
77022;SDS011;65952;51.440;-2.054;2023-02-21T15:52:38;8.43;;;4.43;;
77022;SDS011;65952;51.440;-2.054;2023-02-21T15:58:00;6.63;;;3.67;;
77022;SDS011;65952;51.440;-2.054;2023-02-21T16:08:38;5.50;;;3.40;;
77022;SDS011;65952;51.440;-2.054;2023-02-21T16:11:15;7.00;;;3.47;;
77022;SDS011;65952;51.440;-2.054;2023-02-21T16:13:41;8.95;;;4.00;;
77022;SDS011;65952;51.440;-2.054;2023-02-21T16:16:07;6.95;;;4.00;;
77022;SDS011;65952;51.440;-2.054;2023-02-21T16:18:33;8.10;;;4.43;;
77022;SDS011;65952;51.440;-2.054;2023-02-21T16:21:00;7.70;;;3.88;;
77022;SDS011;65952;51.440;-2.054;2023-02-21T16:25:57;9.60;;;5.07;;
77022;SDS011;65952;51.440;-2.054;2023-02-21T16:28:26;7.15;;;4.10;;
77022;SDS011;65952;51.440;-2.054;2023-02-21T16:30:53;8.45;;;4.28;;
77022;SDS011;65952;51.440;-2.054;2023-02-21T16:33:22;10.63;;;4.63;;
77022;SDS011;65952;51.440;-2.054;2023-02-21T16:35:47;7.88;;;4.45;;
77022;SDS011;65952;51.440;-2.054;2023-02-21T16:38:13;8.98;;;4.60;;
77022;SDS011;65952;51.440;-2.054;2023-02-21T16:40:41;8.48;;;4.25;;
77022;SDS011;65952;51.440;-2.054;2023-02-21T16:43:06;10.05;;;6.13;;
77022;SDS011;65952;51.440;-2.054;2023-02-21T16:45:39;11.25;;;7.18;;
77022;SDS011;65952;51.440;-2.054;2023-02-21T16:48:06;11.07;;;7.35;;
77022;SDS011;65952;51.440;-2.054;2023-02-21T16:50:38;10.30;;;7.43;;
77022;SDS011;65952;51.440;-2.054;2023-02-21T16:53:05;12.32;;;9.18;;
77022;SDS011;65952;51.440;-2.054;2023-02-21T16:55:31;12.55;;;9.32;;
77022;SDS011;65952;51.440;-2.054;2023-02-21T16:58:06;12.88;;;9.70;;
77022;SDS011;65952;51.440;-2.054;2023-02-21T17:00:40;17.10;;;10.63;;
77022;SDS011;65952;51.440;-2.054;2023-02-21T17:03:05;13.27;;;9.43;;
77022;SDS011;65952;51.440;-2.054;2023-02-21T17:05:30;15.43;;;9.70;;
77022;SDS011;65952;51.440;-2.054;2023-02-21T17:07:56;14.27;;;9.88;;
77022;SDS011;65952;51.440;-2.054;2023-02-21T17:10:22;16.63;;;10.10;;
77022;SDS011;65952;51.440;-2.054;2023-02-21T17:12:48;13.63;;;10.10;;
77022;SDS011;65952;51.440;-2.054;2023-02-21T17:15:13;13.95;;;9.98;;
77022;SDS011;65952;51.440;-2.054;2023-02-21T17:17:39;16.02;;;10.93;;
77022;SDS011;65952;51.440;-2.054;2023-02-21T17:20:05;16.38;;;11.77;;
77022;SDS011;65952;51.440;-2.054;2023-02-21T17:22:32;19.08;;;11.80;;
77022;SDS011;65952;51.440;-2.054;2023-02-21T17:24:58;17.70;;;11.93;;
77022;SDS011;65952;51.440;-2.054;2023-02-21T17:27:23;16.75;;;11.55;;
77022;SDS011;65952;51.440;-2.054;2023-02-21T17:29:49;21.50;;;12.68;;
77022;SDS011;65952;51.440;-2.054;2023-02-21T17:32:15;20.50;;;12.63;;
77022;SDS011;65952;51.440;-2.054;2023-02-21T17:34:40;24.70;;;13.38;;
77022;SDS011;65952;51.440;-2.054;2023-02-21T17:37:06;22.65;;;13.25;;
77022;SDS011;65952;51.440;-2.054;2023-02-21T17:39:33;22.08;;;12.70;;
77022;SDS011;65952;51.440;-2.054;2023-02-21T17:41:59;20.50;;;12.18;;
77022;SDS011;65952;51.440;-2.054;2023-02-21T17:44:25;18.10;;;12.30;;
77022;SDS011;65952;51.440;-2.054;2023-02-21T17:46:51;21.75;;;13.48;;
77022;SDS011;65952;51.440;-2.054;2023-02-21T17:49:19;17.83;;;11.38;;
77022;SDS011;65952;51.440;-2.054;2023-02-21T17:51:48;18.38;;;12.10;;
77022;SDS011;65952;51.440;-2.054;2023-02-21T17:54:15;20.58;;;12.25;;
77022;SDS011;65952;51.440;-2.054;2023-02-21T17:56:41;19.48;;;12.00;;
77022;SDS011;65952;51.440;-2.054;2023-02-21T17:59:07;20.23;;;11.73;;
77022;SDS011;65952;51.440;-2.054;2023-02-21T18:01:32;20.00;;;11.23;;